PBD254 UWKE-UUWW
Flight info
| Callsign | PBD254 |
|---|---|
| Flight time | N/A |
| Altitude | 36000 |
| Route | BAKAP2E BAKAP L158 DIMGI DIMGI3A |
| Aircraft | B738/M-SDE2E3FGHIRWXY/LB1 |
Departure
| Time | 2026-04-15 19:24 |
|---|---|
| Airport | Begishevo Airport (UWKE) |
Arrival
| Time | N/A |
|---|---|
| Airport | Vnukovo International Airport (UUWW) |
| Time | Latitude | Longitude | Altitude | Speed | Heading |
|---|---|---|---|---|---|
| 2026-04-15 19:03 | 55.56469 | 52.09918 | 651 ft | 0 kts | 137° |
| 2026-04-15 19:18 | 55.56452 | 52.09957 | 653 ft | 6 kts | 110° |
| 2026-04-15 19:19 | 55.56470 | 52.10042 | 651 ft | 9 kts | 52° |
| 2026-04-15 19:19 | 55.56493 | 52.10073 | 651 ft | 3 kts | 24° |
| 2026-04-15 19:19 | 55.56518 | 52.10070 | 651 ft | 6 kts | 338° |
| 2026-04-15 19:19 | 55.56551 | 52.10022 | 653 ft | 6 kts | 319° |
| 2026-04-15 19:20 | 55.56583 | 52.09969 | 652 ft | 6 kts | 314° |
| 2026-04-15 19:20 | 55.56617 | 52.09913 | 651 ft | 8 kts | 316° |
| 2026-04-15 19:20 | 55.56678 | 52.09815 | 652 ft | 15 kts | 317° |
| 2026-04-15 19:20 | 55.56693 | 52.09689 | 654 ft | 14 kts | 232° |
| 2026-04-15 19:21 | 55.56607 | 52.09524 | 650 ft | 23 kts | 226° |
| 2026-04-15 19:21 | 55.56482 | 52.09285 | 650 ft | 30 kts | 229° |
| 2026-04-15 19:21 | 55.56329 | 52.08996 | 652 ft | 33 kts | 226° |
| 2026-04-15 19:21 | 55.56175 | 52.08708 | 653 ft | 32 kts | 230° |
| 2026-04-15 19:22 | 55.56024 | 52.08418 | 650 ft | 32 kts | 226° |
| 2026-04-15 19:22 | 55.55877 | 52.08142 | 652 ft | 30 kts | 227° |
| 2026-04-15 19:22 | 55.55779 | 52.07925 | 652 ft | 13 kts | 237° |
| 2026-04-15 19:22 | 55.55757 | 52.07869 | 652 ft | 1 kts | 229° |
| 2026-04-15 19:23 | 55.55749 | 52.07878 | 653 ft | 2 kts | 118° |
| 2026-04-15 19:23 | 55.55759 | 52.07915 | 653 ft | 1 kts | 54° |
| 2026-04-15 19:23 | 55.55767 | 52.07932 | 652 ft | 2 kts | 46° |
| 2026-04-15 19:23 | 55.55801 | 52.07994 | 654 ft | 26 kts | 48° |
| 2026-04-15 19:24 | 55.56091 | 52.08547 | 651 ft | 95 kts | 46° |
| 2026-04-15 19:24 | 55.56681 | 52.09660 | 656 ft | 151 kts | 46° |
| 2026-04-15 19:24 | 55.57433 | 52.11114 | 1184 ft | 158 kts | 48° |
| 2026-04-15 19:24 | 55.58156 | 52.12545 | 2106 ft | 157 kts | 53° |
| 2026-04-15 19:25 | 55.58918 | 52.13995 | 2640 ft | 170 kts | 52° |
| 2026-04-15 19:25 | 55.59781 | 52.15600 | 2899 ft | 187 kts | 51° |
| 2026-04-15 19:25 | 55.60699 | 52.17287 | 3138 ft | 199 kts | 53° |
| 2026-04-15 19:25 | 55.61273 | 52.19525 | 3325 ft | 208 kts | 89° |
| 2026-04-15 19:26 | 55.60995 | 52.22093 | 3708 ft | 220 kts | 108° |
| 2026-04-15 19:26 | 55.60131 | 52.24465 | 3987 ft | 241 kts | 139° |
| 2026-04-15 19:26 | 55.58543 | 52.25629 | 4481 ft | 259 kts | 171° |
| 2026-04-15 19:26 | 55.56738 | 52.25247 | 5132 ft | 269 kts | 199° |
| 2026-04-15 19:27 | 55.55208 | 52.23267 | 5601 ft | 283 kts | 232° |
| 2026-04-15 19:27 | 55.54336 | 52.20138 | 6227 ft | 287 kts | 250° |
| 2026-04-15 19:27 | 55.53696 | 52.16786 | 6848 ft | 291 kts | 253° |
| 2026-04-15 19:27 | 55.53076 | 52.13344 | 7415 ft | 296 kts | 253° |
| 2026-04-15 19:28 | 55.52414 | 52.09892 | 8073 ft | 297 kts | 251° |
| 2026-04-15 19:28 | 55.51709 | 52.06466 | 8816 ft | 298 kts | 250° |
| 2026-04-15 19:28 | 55.50974 | 52.03024 | 9473 ft | 302 kts | 250° |
| 2026-04-15 19:28 | 55.50220 | 51.99541 | 10160 ft | 305 kts | 250° |
| 2026-04-15 19:29 | 55.49463 | 51.96069 | 10667 ft | 314 kts | 250° |
| 2026-04-15 19:29 | 55.48649 | 51.92338 | 10827 ft | 337 kts | 250° |
| 2026-04-15 19:29 | 55.47780 | 51.88369 | 11039 ft | 356 kts | 250° |
| 2026-04-15 19:29 | 55.46874 | 51.84245 | 11549 ft | 364 kts | 250° |
| 2026-04-15 19:30 | 55.45954 | 51.80061 | 12237 ft | 367 kts | 251° |
| 2026-04-15 19:30 | 55.45285 | 51.75733 | 12950 ft | 368 kts | 262° |
| 2026-04-15 19:30 | 55.44903 | 51.71265 | 13674 ft | 370 kts | 264° |
| 2026-04-15 19:30 | 55.44676 | 51.68275 | 14134 ft | 373 kts | 264° |
| 2026-04-15 19:31 | 55.44331 | 51.63743 | 14792 ft | 376 kts | 264° |
| 2026-04-15 19:31 | 55.43967 | 51.59166 | 15465 ft | 379 kts | 263° |
| 2026-04-15 19:31 | 55.43581 | 51.54541 | 16150 ft | 382 kts | 263° |
| 2026-04-15 19:31 | 55.43180 | 51.49893 | 16830 ft | 385 kts | 263° |
| 2026-04-15 19:32 | 55.42766 | 51.45207 | 17489 ft | 389 kts | 263° |
| 2026-04-15 19:32 | 55.42343 | 51.40483 | 18152 ft | 392 kts | 263° |
| 2026-04-15 19:32 | 55.41915 | 51.35730 | 18770 ft | 396 kts | 263° |
| 2026-04-15 19:32 | 55.41480 | 51.30926 | 19343 ft | 399 kts | 263° |
| 2026-04-15 19:33 | 55.41041 | 51.26090 | 19934 ft | 401 kts | 263° |
| 2026-04-15 19:33 | 55.40598 | 51.21222 | 20491 ft | 404 kts | 263° |
| 2026-04-15 19:34 | 55.39496 | 51.05150 | 22261 ft | 412 kts | 271° |
| 2026-04-15 19:34 | 55.39497 | 51.00082 | 22801 ft | 415 kts | 272° |
| 2026-04-15 19:34 | 55.39535 | 50.95002 | 23327 ft | 418 kts | 272° |
| 2026-04-15 19:34 | 55.39566 | 50.89852 | 23845 ft | 421 kts | 272° |
| 2026-04-15 19:35 | 55.39576 | 50.84688 | 24274 ft | 423 kts | 272° |
| 2026-04-15 19:35 | 55.39571 | 50.81250 | 24567 ft | 425 kts | 271° |
| 2026-04-15 19:36 | 55.39466 | 50.63948 | 25983 ft | 431 kts | 271° |
| 2026-04-15 19:36 | 55.39421 | 50.58633 | 26396 ft | 433 kts | 271° |
| 2026-04-15 19:37 | 55.39219 | 50.37139 | 27991 ft | 441 kts | 270° |
| 2026-04-15 19:37 | 55.39164 | 50.31782 | 28285 ft | 445 kts | 270° |
| 2026-04-15 19:37 | 55.39105 | 50.26265 | 28623 ft | 447 kts | 270° |
| 2026-04-15 19:38 | 55.39045 | 50.20848 | 28999 ft | 449 kts | 270° |
| 2026-04-15 19:38 | 55.38981 | 50.15352 | 29370 ft | 450 kts | 270° |
| 2026-04-15 19:38 | 55.38914 | 50.09816 | 29697 ft | 452 kts | 270° |
| 2026-04-15 19:38 | 55.38846 | 50.04285 | 30006 ft | 454 kts | 270° |
| 2026-04-15 19:39 | 55.38774 | 49.98720 | 30329 ft | 456 kts | 270° |
| 2026-04-15 19:39 | 55.38831 | 49.93148 | 30677 ft | 454 kts | 275° |
| 2026-04-15 19:39 | 55.39087 | 49.87632 | 31128 ft | 451 kts | 277° |